createdAt,value
2018-02-16T00:01:02.764Z,42.73
2018-02-16T00:03:30.250Z,42.10
2018-02-16T00:05:57.718Z,41.10
2018-02-16T00:08:25.204Z,40.13
2018-02-16T00:10:53.446Z,40.77
2018-02-16T00:13:20.938Z,38.83
2018-02-16T00:15:49.167Z,44.30
2018-02-16T00:18:16.644Z,41.50
2018-02-16T00:20:44.142Z,38.20
2018-02-16T00:23:11.643Z,42.03
2018-02-16T00:25:39.121Z,42.20
2018-02-16T00:28:06.603Z,45.23
2018-02-16T00:30:34.098Z,45.93
2018-02-16T00:33:01.614Z,42.97
2018-02-16T00:35:29.094Z,43.33
2018-02-16T00:37:57.334Z,39.00
2018-02-16T00:40:24.820Z,42.30
2018-02-16T00:42:53.066Z,37.67
2018-02-16T00:45:20.542Z,40.67
2018-02-16T00:47:48.013Z,38.53
2018-02-16T00:50:15.559Z,37.33
2018-02-16T00:52:43.041Z,35.27
2018-02-16T00:55:11.278Z,35.90
2018-02-16T00:57:38.776Z,37.67
2018-02-16T01:00:07.018Z,39.33
2018-02-16T01:02:34.558Z,37.50
2018-02-16T01:05:02.051Z,35.20
2018-02-16T01:07:29.535Z,39.57
2018-02-16T01:09:57.775Z,35.20
2018-02-16T01:12:26.018Z,36.80
2018-02-16T01:14:53.497Z,34.20
2018-02-16T01:17:20.978Z,37.70
2018-02-16T01:19:48.467Z,39.07
2018-02-16T01:22:15.946Z,39.27
2018-02-16T01:24:43.442Z,37.07
2018-02-16T01:27:10.952Z,37.43
2018-02-16T01:29:38.423Z,41.60
2018-02-16T01:32:05.923Z,37.13
2018-02-16T01:34:33.394Z,38.60
2018-02-16T01:37:00.894Z,42.00
2018-02-16T01:39:28.390Z,38.93
2018-02-16T01:41:55.861Z,40.70
2018-02-16T01:44:23.346Z,36.20
2018-02-16T01:46:50.839Z,37.77
2018-02-16T01:49:18.348Z,35.07
2018-02-16T01:51:45.822Z,38.13
2018-02-16T01:54:14.085Z,36.20
2018-02-16T01:56:42.353Z,35.97
2018-02-16T01:59:09.861Z,37.10
2018-02-16T02:01:37.339Z,36.23
2018-02-16T02:04:04.837Z,36.93
2018-02-16T02:06:32.301Z,37.80
2018-02-16T02:09:00.568Z,37.33
2018-02-16T02:11:28.038Z,36.20
2018-02-16T02:13:56.354Z,39.20
2018-02-16T02:16:23.866Z,38.93
2018-02-16T02:18:51.335Z,36.67
2018-02-16T02:21:19.584Z,37.53
2018-02-16T02:23:47.051Z,39.80
2018-02-16T02:26:14.556Z,40.57
2018-02-16T02:28:42.036Z,41.00
2018-02-16T02:31:09.516Z,40.17
2018-02-16T02:33:37.018Z,40.47
2018-02-16T02:36:04.505Z,43.73
2018-02-16T02:38:31.990Z,38.90
2018-02-16T02:40:59.490Z,40.90
2018-02-16T02:43:27.729Z,39.50
2018-02-16T02:45:55.217Z,44.27
2018-02-16T02:48:23.453Z,41.70
2018-02-16T02:50:50.948Z,44.57
2018-02-16T02:53:19.190Z,46.10
2018-02-16T02:55:48.196Z,44.30
2018-02-16T02:58:15.687Z,37.90
2018-02-16T03:00:43.918Z,35.30
2018-02-16T03:03:11.392Z,37.70
2018-02-16T03:05:38.878Z,41.27
2018-02-16T03:08:07.129Z,38.57
2018-02-16T03:10:34.589Z,39.60
2018-02-16T03:13:02.070Z,37.47
2018-02-16T03:15:30.382Z,36.90
2018-02-16T03:17:57.878Z,38.53
2018-02-16T03:20:25.337Z,41.90
2018-02-16T03:22:52.842Z,39.80
2018-02-16T03:25:20.292Z,41.07
2018-02-16T03:27:47.779Z,40.60
2018-02-16T03:30:15.280Z,42.67
2018-02-16T03:32:43.535Z,43.60
2018-02-16T03:35:10.989Z,45.57
2018-02-16T03:37:38.470Z,41.40
2018-02-16T03:40:05.937Z,44.90
2018-02-16T03:42:34.184Z,37.97
2018-02-16T03:45:01.647Z,37.77
2018-02-16T03:47:29.127Z,41.80
2018-02-16T03:49:57.389Z,42.20
2018-02-16T03:52:25.614Z,42.13
2018-02-16T03:54:53.110Z,48.60
2018-02-16T03:57:20.574Z,46.70
2018-02-16T03:59:48.066Z,45.80
2018-02-16T04:02:16.296Z,45.10
2018-02-16T04:04:43.765Z,47.17
2018-02-16T04:07:11.229Z,42.47
2018-02-16T04:09:38.703Z,47.27
2018-02-16T04:12:06.165Z,49.97
2018-02-16T04:14:34.413Z,48.27
2018-02-16T04:17:01.886Z,44.83
2018-02-16T04:19:29.354Z,44.17
2018-02-16T04:21:56.885Z,45.17
2018-02-16T04:24:24.355Z,41.03
2018-02-16T04:26:51.825Z,38.83
2018-02-16T04:29:19.293Z,40.13
2018-02-16T04:31:46.769Z,38.87
2018-02-16T04:34:14.261Z,36.00
2018-02-16T04:36:41.741Z,41.80
2018-02-16T04:39:09.214Z,41.13
2018-02-16T04:41:36.678Z,42.03
2018-02-16T04:44:04.142Z,38.70
2018-02-16T04:46:32.397Z,37.77
2018-02-16T04:48:59.873Z,35.33
2018-02-16T04:51:27.329Z,38.27
2018-02-16T04:53:54.811Z,36.60
2018-02-16T04:56:23.062Z,37.33
2018-02-16T04:58:50.543Z,37.30
2018-02-16T05:01:18.766Z,37.53
2018-02-16T05:03:46.237Z,31.70
2018-02-16T05:06:13.790Z,31.70
2018-02-16T05:08:41.300Z,35.53
2018-02-16T05:11:09.542Z,40.50
2018-02-16T05:13:37.004Z,36.60
2018-02-16T05:16:04.501Z,37.37
2018-02-16T05:18:31.958Z,32.37
2018-02-16T05:20:59.426Z,36.00
2018-02-16T05:23:26.897Z,38.40
2018-02-16T05:25:54.396Z,30.37
2018-02-16T05:28:22.630Z,31.27
2018-02-16T05:30:50.115Z,33.57
2018-02-16T05:33:17.575Z,36.80
2018-02-16T05:35:45.071Z,36.67
2018-02-16T05:38:13.314Z,34.60
2018-02-16T05:40:40.788Z,34.17
2018-02-16T05:43:08.249Z,33.60
2018-02-16T05:45:35.781Z,34.13
2018-02-16T05:48:03.250Z,32.60
2018-02-16T05:50:30.731Z,35.07
2018-02-16T05:52:58.212Z,34.60
2018-02-16T05:55:26.455Z,30.83
2018-02-16T05:57:53.917Z,30.10
2018-02-16T06:00:22.165Z,31.47
2018-02-16T06:02:49.644Z,31.63
2018-02-16T06:05:17.109Z,30.87
2018-02-16T06:07:44.573Z,31.40
2018-02-16T06:10:12.821Z,29.10
2018-02-16T06:12:40.294Z,29.20
2018-02-16T06:15:07.782Z,31.27
2018-02-16T06:17:35.407Z,27.70
2018-02-16T06:20:02.866Z,27.60
2018-02-16T06:22:30.354Z,27.67
2018-02-16T06:24:58.669Z,29.43
2018-02-16T06:27:26.153Z,30.87
2018-02-16T06:29:53.637Z,30.67
2018-02-16T06:32:21.123Z,27.63
2018-02-16T06:34:48.585Z,29.50
2018-02-16T06:37:16.058Z,25.10
2018-02-16T06:39:43.537Z,25.10
2018-02-16T06:42:11.134Z,26.33
2018-02-16T06:44:39.382Z,26.80
2018-02-16T06:47:06.849Z,24.13
2018-02-16T06:49:34.343Z,27.33
2018-02-16T06:52:02.569Z,27.90
2018-02-16T06:54:30.034Z,25.80
2018-02-16T06:56:57.507Z,27.03
2018-02-16T06:59:24.985Z,23.80
2018-02-16T07:01:53.228Z,23.87
2018-02-16T07:04:20.710Z,22.23
2018-02-16T07:06:48.182Z,23.10
2018-02-16T07:09:16.407Z,23.77
2018-02-16T07:11:43.886Z,24.07
2018-02-16T07:14:11.365Z,20.07
2018-02-16T07:16:38.833Z,23.23
2018-02-16T07:19:06.303Z,18.40
2018-02-16T07:21:35.578Z,19.87
2018-02-16T07:24:03.039Z,20.07
2018-02-16T07:26:31.295Z,16.87
2018-02-16T07:28:58.774Z,17.40
2018-02-16T07:31:26.258Z,16.57
2018-02-16T07:33:53.765Z,16.30
2018-02-16T07:36:21.255Z,16.47
2018-02-16T07:38:48.751Z,14.50
2018-02-16T07:41:16.229Z,15.37
2018-02-16T07:43:43.717Z,16.00
2018-02-16T07:46:11.178Z,14.40
2018-02-16T07:48:38.676Z,15.50
2018-02-16T07:51:06.149Z,17.27
2018-02-16T07:53:33.615Z,13.53
2018-02-16T07:56:01.144Z,14.47
2018-02-16T07:58:28.642Z,14.50
2018-02-16T08:00:56.870Z,14.47
2018-02-16T08:03:25.121Z,14.00
2018-02-16T08:05:52.573Z,15.10
2018-02-16T08:08:20.062Z,15.33
2018-02-16T08:10:48.298Z,12.03
2018-02-16T08:13:15.785Z,13.20
2018-02-16T08:15:43.244Z,14.87
2018-02-16T08:18:11.493Z,13.70
2018-02-16T08:20:38.966Z,12.83
2018-02-16T08:23:06.632Z,11.83
2018-02-16T08:25:34.111Z,9.17
2018-02-16T08:28:02.342Z,9.57
2018-02-16T08:30:29.933Z,10.83
2018-02-16T08:32:58.186Z,8.90
2018-02-16T08:35:25.679Z,7.60
2018-02-16T08:37:53.914Z,9.07
2018-02-16T08:40:21.389Z,8.43
2018-02-16T08:42:48.876Z,8.37
2018-02-16T08:45:17.119Z,7.77
2018-02-16T08:47:44.575Z,8.47
2018-02-16T08:50:12.078Z,8.67
2018-02-16T08:52:39.654Z,9.37
2018-02-16T08:55:07.226Z,7.60
2018-02-16T08:57:34.879Z,8.63
2018-02-16T09:00:02.458Z,8.30
2018-02-16T09:02:29.924Z,7.90
2018-02-16T09:04:57.390Z,8.83
2018-02-16T09:07:24.997Z,7.73
2018-02-16T09:09:53.326Z,8.30
2018-02-16T09:12:20.812Z,7.43
2018-02-16T09:14:48.482Z,7.23
2018-02-16T09:17:16.136Z,9.37
2018-02-16T09:19:43.670Z,9.60
2018-02-16T09:22:11.146Z,8.40
2018-02-16T09:24:38.690Z,8.03
2018-02-16T09:27:06.166Z,8.53
2018-02-16T09:29:33.661Z,7.83
2018-02-16T09:32:01.184Z,7.93
2018-02-16T09:34:28.686Z,7.87
2018-02-16T09:36:57.152Z,6.93
2018-02-16T09:39:26.999Z,7.67
2018-02-16T09:41:54.526Z,8.13
2018-02-16T09:44:22.986Z,8.80
2018-02-16T09:46:50.832Z,7.00
2018-02-16T09:49:18.423Z,7.43
2018-02-16T09:51:46.189Z,7.60
2018-02-16T09:54:13.765Z,7.70
2018-02-16T09:56:41.256Z,7.97
2018-02-16T09:59:08.739Z,7.50
2018-02-16T10:01:36.211Z,8.20
2018-02-16T10:04:03.772Z,8.57
2018-02-16T10:06:31.274Z,8.07
2018-02-16T10:08:58.777Z,8.80
2018-02-16T10:11:26.267Z,8.60
2018-02-16T10:13:54.528Z,9.23
2018-02-16T10:16:22.037Z,7.40
2018-02-16T10:18:49.568Z,6.80
2018-02-16T10:21:17.790Z,6.87
2018-02-16T10:23:45.688Z,8.83
2018-02-16T10:26:13.348Z,8.03
2018-02-16T10:28:40.840Z,7.13
2018-02-16T10:31:08.317Z,8.03
2018-02-16T10:33:35.798Z,7.03
2018-02-16T10:36:03.262Z,6.70
2018-02-16T10:38:30.900Z,7.23
2018-02-16T10:40:58.382Z,6.90
2018-02-16T10:43:26.837Z,7.13
2018-02-16T10:45:54.323Z,8.10
2018-02-16T10:48:21.791Z,8.40
2018-02-16T10:50:49.268Z,9.43
2018-02-16T10:53:16.779Z,7.67
2018-02-16T10:55:44.242Z,6.93
2018-02-16T10:58:11.745Z,7.83
2018-02-16T11:00:45.006Z,5.97
2018-02-16T11:03:18.061Z,7.00
2018-02-16T11:05:51.369Z,7.43
2018-02-16T11:08:24.465Z,7.90
2018-02-16T11:10:51.936Z,5.47
2018-02-16T11:13:19.532Z,6.13
2018-02-16T11:15:47.637Z,5.03
2018-02-16T11:18:15.164Z,4.97
2018-02-16T11:20:42.634Z,4.80
2018-02-16T11:23:10.113Z,5.00
2018-02-16T11:25:38.432Z,4.60
2018-02-16T11:28:05.913Z,6.50
2018-02-16T11:30:33.379Z,5.87
2018-02-16T11:33:00.866Z,4.63
2018-02-16T11:35:28.330Z,5.50
2018-02-16T11:37:55.919Z,5.60
2018-02-16T11:40:23.505Z,6.50
2018-02-16T11:42:51.858Z,4.53
2018-02-16T11:45:19.425Z,6.10
2018-02-16T11:47:47.098Z,5.00
2018-02-16T11:50:14.561Z,5.20
2018-02-16T11:52:42.235Z,4.70
2018-02-16T11:55:09.727Z,4.50
2018-02-16T11:57:37.949Z,4.20
2018-02-16T12:00:05.695Z,6.27
2018-02-16T12:02:33.216Z,5.27
2018-02-16T12:05:01.713Z,4.63
2018-02-16T12:07:30.136Z,4.43
2018-02-16T12:09:57.743Z,4.37
2018-02-16T12:12:26.084Z,4.83
2018-02-16T12:14:53.838Z,4.60
2018-02-16T12:17:21.360Z,4.33
2018-02-16T12:19:48.835Z,4.63
2018-02-16T12:22:16.327Z,4.60
2018-02-16T12:24:43.925Z,3.40
2018-02-16T12:27:12.325Z,4.07
2018-02-16T12:29:40.109Z,4.37
2018-02-16T12:32:07.593Z,4.27
2018-02-16T12:34:35.157Z,4.87
2018-02-16T12:37:02.630Z,3.90
2018-02-16T12:39:30.100Z,4.00
2018-02-16T12:41:58.341Z,3.83
2018-02-16T12:44:25.795Z,4.10
2018-02-16T12:46:53.286Z,4.70
2018-02-16T12:49:20.748Z,4.87
2018-02-16T12:51:48.282Z,3.60
2018-02-16T12:54:15.731Z,2.60
2018-02-16T12:56:43.206Z,3.30
2018-02-16T12:59:10.669Z,3.97
2018-02-16T13:01:38.139Z,2.97
2018-02-16T13:04:05.597Z,4.10
2018-02-16T13:06:33.068Z,2.97
2018-02-16T13:09:00.531Z,3.23
2018-02-16T13:11:28.755Z,3.53
2018-02-16T13:13:56.235Z,3.37
2018-02-16T13:16:23.721Z,6.77
2018-02-16T13:18:51.956Z,3.80
2018-02-16T13:21:19.420Z,3.40
2018-02-16T13:23:46.877Z,2.87
2018-02-16T13:26:14.350Z,3.33
2018-02-16T13:28:41.820Z,3.57
2018-02-16T13:31:09.315Z,6.13
2018-02-16T13:33:37.506Z,3.70
2018-02-16T13:36:04.984Z,4.43
2018-02-16T13:38:32.589Z,3.20
2018-02-16T13:41:00.816Z,4.33
2018-02-16T13:43:28.285Z,3.50
2018-02-16T13:45:55.762Z,4.80
2018-02-16T13:48:24.772Z,4.37
2018-02-16T13:50:52.257Z,4.30
2018-02-16T13:53:19.709Z,3.77
2018-02-16T13:55:47.192Z,3.70
2018-02-16T13:58:14.649Z,4.17
2018-02-16T14:00:42.116Z,2.90
2018-02-16T14:03:10.299Z,3.60
2018-02-16T14:05:37.770Z,4.40
2018-02-16T14:08:05.233Z,3.60
2018-02-16T14:10:32.705Z,4.03
2018-02-16T14:13:00.950Z,3.50
2018-02-16T14:15:28.425Z,3.40
2018-02-16T14:17:55.886Z,3.70
2018-02-16T14:20:23.340Z,3.70
2018-02-16T14:22:50.802Z,5.13
2018-02-16T14:25:18.294Z,4.90
2018-02-16T14:27:46.534Z,6.83
2018-02-16T14:30:14.003Z,6.93
2018-02-16T14:32:41.470Z,3.93
2018-02-16T14:35:09.717Z,4.40
2018-02-16T14:37:37.252Z,4.30
2018-02-16T14:40:04.712Z,4.60
2018-02-16T14:42:32.205Z,5.07
2018-02-16T14:44:59.668Z,4.40
2018-02-16T14:47:27.152Z,4.07
2018-02-16T14:49:55.408Z,3.53
2018-02-16T14:52:22.888Z,3.37
2018-02-16T14:54:51.118Z,4.17
2018-02-16T14:57:19.339Z,3.50
2018-02-16T14:59:47.575Z,3.90
2018-02-16T15:02:15.035Z,3.47
2018-02-16T15:04:42.544Z,4.30
2018-02-16T15:07:10.769Z,5.67
2018-02-16T15:09:38.279Z,4.30
2018-02-16T15:12:05.743Z,3.47
2018-02-16T15:14:33.235Z,4.70
2018-02-16T15:17:00.702Z,4.33
2018-02-16T15:19:28.170Z,3.90
2018-02-16T15:21:55.670Z,5.03
2018-02-16T15:24:23.154Z,4.60
2018-02-16T15:26:50.702Z,3.83
2018-02-16T15:29:18.166Z,3.97
2018-02-16T15:31:45.632Z,3.30
2018-02-16T15:34:13.121Z,2.90
2018-02-16T15:36:40.588Z,3.43
2018-02-16T15:39:08.070Z,3.63
2018-02-16T15:41:36.312Z,4.50
2018-02-16T15:44:03.779Z,3.03
2018-02-16T15:46:31.281Z,3.93
2018-02-16T15:48:58.758Z,3.80
2018-02-16T15:51:26.237Z,4.10
2018-02-16T15:53:53.714Z,4.20
2018-02-16T15:56:23.614Z,4.23
2018-02-16T15:58:51.083Z,2.90
2018-02-16T16:01:18.549Z,4.10
2018-02-16T16:03:46.008Z,3.50
2018-02-16T16:06:14.253Z,3.63
2018-02-16T16:08:41.705Z,3.77
2018-02-16T16:11:09.179Z,4.57
2018-02-16T16:13:36.632Z,4.37
2018-02-16T16:16:04.106Z,5.00
2018-02-16T16:18:31.739Z,5.20
2018-02-16T16:20:59.219Z,5.43
2018-02-16T16:23:26.700Z,4.50
2018-02-16T16:25:54.158Z,3.80
2018-02-16T16:28:22.279Z,4.50
2018-02-16T16:30:49.742Z,3.90
2018-02-16T16:33:17.207Z,4.67
2018-02-16T16:35:45.599Z,4.30
2018-02-16T16:38:13.085Z,4.70
2018-02-16T16:40:42.664Z,3.80
2018-02-16T16:43:12.674Z,4.40
2018-02-16T16:45:42.317Z,5.47
2018-02-16T16:48:10.096Z,7.10
2018-02-16T16:50:38.572Z,5.27
2018-02-16T16:53:06.114Z,6.93
2018-02-16T16:55:33.663Z,6.23
2018-02-16T16:58:01.882Z,6.97
2018-02-16T17:00:30.132Z,5.73
2018-02-16T17:02:57.590Z,5.93
2018-02-16T17:05:25.070Z,6.27
2018-02-16T17:07:53.319Z,5.07
2018-02-16T17:10:20.776Z,6.60
2018-02-16T17:12:48.250Z,8.20
2018-02-16T17:15:15.721Z,8.07
2018-02-16T17:17:43.962Z,6.80
2018-02-16T17:20:11.452Z,7.90
2018-02-16T17:22:38.945Z,8.80
2018-02-16T17:25:06.432Z,9.60
2018-02-16T17:27:33.896Z,10.67
2018-02-16T17:30:01.389Z,7.93
2018-02-16T17:32:29.622Z,8.40
2018-02-16T17:34:57.082Z,8.53
2018-02-16T17:37:24.567Z,10.77
2018-02-16T17:39:52.801Z,9.87
2018-02-16T17:42:20.278Z,8.90
2018-02-16T17:44:47.734Z,9.30
2018-02-16T17:47:15.226Z,8.90
2018-02-16T17:49:42.713Z,9.93
2018-02-16T17:52:10.254Z,9.10
2018-02-16T17:54:38.524Z,9.80
2018-02-16T17:57:05.994Z,11.47
2018-02-16T17:59:34.261Z,11.63
2018-02-16T18:02:01.759Z,12.17
2018-02-16T18:04:29.269Z,16.00
2018-02-16T18:06:56.752Z,14.57
2018-02-16T18:09:25.123Z,15.30
2018-02-16T18:11:53.389Z,14.07
2018-02-16T18:14:20.871Z,14.70
2018-02-16T18:16:48.354Z,15.97
2018-02-16T18:19:15.858Z,18.47
2018-02-16T18:21:43.339Z,14.63
2018-02-16T18:24:11.585Z,15.60
2018-02-16T18:26:39.042Z,13.60
2018-02-16T18:29:06.604Z,17.17
2018-02-16T18:31:34.071Z,18.47
2018-02-16T18:34:01.562Z,17.30
2018-02-16T18:36:29.074Z,19.50
2018-02-16T18:38:56.548Z,20.50
2018-02-16T18:41:24.020Z,20.77
2018-02-16T18:43:52.265Z,24.60
2018-02-16T18:46:19.737Z,21.10
2018-02-16T18:48:47.202Z,20.20
2018-02-16T18:51:14.714Z,12.73
2018-02-16T18:53:42.219Z,12.07
2018-02-16T18:56:09.694Z,9.73
2018-02-16T18:58:38.024Z,10.53
2018-02-16T19:01:05.531Z,12.90
2018-02-16T19:03:33.789Z,12.27
2018-02-16T19:06:01.251Z,12.70
2018-02-16T19:08:29.532Z,11.40
2018-02-16T19:10:56.996Z,11.03
2018-02-16T19:13:25.338Z,13.20
2018-02-16T19:15:52.806Z,14.57
2018-02-16T19:18:20.336Z,14.60
2018-02-16T19:20:47.802Z,13.23
2018-02-16T19:23:15.270Z,14.20
2018-02-16T19:25:42.923Z,14.80
2018-02-16T19:28:10.406Z,13.50
2018-02-16T19:30:38.207Z,14.57
2018-02-16T19:33:07.273Z,15.97
2018-02-16T19:35:34.969Z,14.80
2018-02-16T19:38:02.657Z,14.90
2018-02-16T19:40:30.518Z,17.57
2018-02-16T19:42:58.386Z,16.70
2018-02-16T19:45:26.058Z,15.97
2018-02-16T19:47:53.918Z,17.80
2018-02-16T19:50:21.888Z,17.90
2018-02-16T19:52:49.787Z,16.60
2018-02-16T19:55:17.260Z,17.83
2018-02-16T19:57:45.016Z,17.07
2018-02-16T20:00:13.052Z,19.37
2018-02-16T20:02:41.022Z,18.87
2018-02-16T20:05:08.585Z,16.60
2018-02-16T20:07:36.653Z,14.93
2018-02-16T20:10:04.621Z,16.50
2018-02-16T20:12:33.617Z,18.73
2018-02-16T20:15:01.138Z,17.17
2018-02-16T20:17:28.646Z,15.97
2018-02-16T20:19:56.911Z,15.90
2018-02-16T20:22:24.964Z,16.30
2018-02-16T20:24:53.571Z,17.30
2018-02-16T20:27:21.433Z,15.30
2018-02-16T20:29:48.945Z,17.80
2018-02-16T20:32:16.868Z,16.37
2018-02-16T20:34:44.731Z,16.33
2018-02-16T20:37:12.242Z,16.37
2018-02-16T20:39:40.057Z,16.37
2018-02-16T20:42:08.509Z,14.97
2018-02-16T20:44:37.122Z,15.53
2018-02-16T20:47:04.709Z,14.63
2018-02-16T20:49:32.190Z,14.60
2018-02-16T20:52:00.445Z,13.53
2018-02-16T20:54:28.807Z,15.27
2018-02-16T20:56:56.298Z,15.10
2018-02-16T20:59:23.816Z,17.30
2018-02-16T21:01:51.305Z,16.90
2018-02-16T21:04:18.793Z,17.87
2018-02-16T21:06:46.615Z,15.70
2018-02-16T21:09:15.681Z,15.87
2018-02-16T21:11:43.213Z,13.90
2018-02-16T21:14:10.724Z,15.63
2018-02-16T21:16:38.733Z,15.07
2018-02-16T21:19:06.194Z,14.77
2018-02-16T21:21:33.722Z,11.57
2018-02-16T21:24:01.226Z,11.47
2018-02-16T21:26:29.462Z,11.73
2018-02-16T21:28:57.177Z,11.77
2018-02-16T21:31:25.552Z,11.40
2018-02-16T21:33:53.009Z,11.37
2018-02-16T21:36:21.266Z,12.13
2018-02-16T21:38:48.745Z,12.70
2018-02-16T21:41:17.069Z,12.60
2018-02-16T21:43:44.614Z,12.93
2018-02-16T21:46:12.078Z,14.07
2018-02-16T21:48:39.575Z,14.47
2018-02-16T21:51:07.046Z,16.73
2018-02-16T21:53:34.561Z,14.83
2018-02-16T21:56:02.423Z,11.90
2018-02-16T21:58:29.906Z,13.47
2018-02-16T22:00:57.375Z,12.03
2018-02-16T22:03:24.923Z,12.87
2018-02-16T22:05:52.544Z,17.87
2018-02-16T22:08:20.015Z,11.30
2018-02-16T22:10:47.501Z,11.60
2018-02-16T22:13:15.070Z,11.03
2018-02-16T22:15:42.563Z,11.20
2018-02-16T22:18:11.322Z,11.63
2018-02-16T22:20:38.821Z,11.67
2018-02-16T22:23:07.304Z,9.77
2018-02-16T22:25:34.772Z,9.70
2018-02-16T22:28:02.243Z,10.97
2018-02-16T22:30:29.733Z,10.47
2018-02-16T22:32:57.216Z,10.97
2018-02-16T22:35:25.467Z,10.43
2018-02-16T22:37:52.932Z,11.20
2018-02-16T22:40:20.410Z,11.50
2018-02-16T22:42:48.682Z,10.50
2018-02-16T22:45:16.182Z,15.20
2018-02-16T22:47:43.661Z,11.30
2018-02-16T22:50:11.367Z,12.40
2018-02-16T22:52:38.873Z,12.90
2018-02-16T22:55:06.401Z,24.33
2018-02-16T22:57:35.905Z,20.23
2018-02-16T23:00:05.659Z,16.43
2018-02-16T23:02:33.320Z,16.60
2018-02-16T23:05:00.828Z,15.77
2018-02-16T23:07:29.083Z,14.00
2018-02-16T23:09:57.574Z,14.87
2018-02-16T23:12:25.075Z,15.83
2018-02-16T23:14:52.541Z,17.07
2018-02-16T23:17:20.029Z,14.87
2018-02-16T23:19:47.520Z,14.70
2018-02-16T23:22:15.762Z,18.43
2018-02-16T23:24:43.269Z,14.93
2018-02-16T23:27:11.716Z,13.57
2018-02-16T23:29:39.285Z,13.70
2018-02-16T23:32:07.030Z,15.50
2018-02-16T23:34:34.540Z,16.33
2018-02-16T23:37:02.014Z,15.57
2018-02-16T23:39:29.501Z,14.67
2018-02-16T23:41:56.981Z,15.23
2018-02-16T23:44:24.420Z,16.43
2018-02-16T23:46:51.922Z,16.50
2018-02-16T23:49:19.532Z,14.60
2018-02-16T23:51:47.002Z,14.33
2018-02-16T23:54:14.495Z,14.57
2018-02-16T23:56:41.970Z,15.00
2018-02-16T23:59:09.462Z,15.40
